CMD weather

Cootamundra Airport
New South Wales, Australia

Public forecast

Using degrees Celsius for public forecast. Weather courtesy of forecast.io.

METAR (pilot weather report)

Closest report is Wagga Wagga City Airport, 42.7 nm (79.1 km) SW. Retrieved 2019/04/23 15:00 UTC (32 minutes ago):

YSWG 231500Z AUTO 09008KT 9999 // NCD 17/13 Q1023

TAF (pilot weather forecast)

Forecast is more than 12 hours old.

Closest forecast is Wagga Wagga City Airport, 42.7 nm (79.1 km) SW. Retrieved 2018/05/25 18:03 UTC (11 months ago):

TAF YSWG 251649Z 2518/2608 07008KT CAVOK